Time;durP1;ratioP1;P1;durP2;ratioP2;P2;SDS_P1;SDS_P2;PMS_P1;PMS_P2;Temp;Humidity;BMP_temperature;BMP_pressure;BME280_temperature;BME280_humidity;BME280_pressure;Samples;Min_cycle;Max_cycle;Signal;HPM_P1;HPM_P2
2023/04/19 00:02:09;;;;;;;;;;;;;;;10.44;100.00;98475.72;5025900;28;19952;-79
2023/04/19 00:04:37;;;;;;;;;;;;;;;10.33;100.00;98480.13;4994956;28;20424;-80
2023/04/19 00:07:03;;;;;;;;;;;;;;;10.42;100.00;98472.50;4987078;28;20522;-81
2023/04/19 00:09:29;;;;;;;;;;;;;;;10.29;100.00;98469.13;4992793;28;19980;-79
2023/04/19 00:11:56;;;;;;;;;;;;;;;10.28;100.00;98466.69;5023117;28;19991;-79
2023/04/19 00:14:23;;;;;;;;;;;;;;;10.10;100.00;98466.94;5021769;28;19933;-80
2023/04/19 00:16:50;;;;;;;;;;;;;;;10.18;100.00;98461.25;4990711;28;20425;-79
2023/04/19 00:19:16;;;;;;;;;;;;;;;10.24;100.00;98455.69;5001493;28;19932;-80
2023/04/19 00:21:43;;;;;;;;;;;;;;;10.19;100.00;98458.31;5009898;28;19929;-79
2023/04/19 00:24:09;;;;;;;;;;;;;;;10.11;100.00;98456.06;5017478;28;20393;-79
2023/04/19 00:26:35;;;;;;;;;;;;;;;10.16;100.00;98456.13;5013694;28;20638;-79
2023/04/19 00:29:02;;;;;;;;;;;;;;;10.21;100.00;98455.41;5022977;28;20036;-79
2023/04/19 00:31:29;;;;;;;;;;;;;;;10.18;100.00;98448.69;5015815;28;19944;-79
2023/04/19 00:33:56;;;;;;;;;;;;;;;10.00;100.00;98448.13;5018374;28;19929;-79
2023/04/19 00:36:22;;;;;;;;;;;;;;;9.96;100.00;98442.50;5023283;28;20316;-80
2023/04/19 00:38:48;;;;;;;;;;;;;;;10.05;100.00;98446.38;5019316;28;19932;-79
2023/04/19 00:41:15;;;;;;;;;;;;;;;9.97;100.00;98443.28;5019254;28;19929;-79
2023/04/19 00:43:42;;;;;;;;;;;;;;;10.07;100.00;98432.75;5027260;28;19929;-79
2023/04/19 00:46:08;;;;;;;;;;;;;;;10.18;100.00;98434.56;5023243;28;20028;-79
2023/04/19 00:48:36;;;;;;;;;;;;;;;9.98;100.00;98429.72;5019124;28;19967;-79
2023/04/19 00:51:02;;;;;;;;;;;;;;;10.05;100.00;98429.53;5012430;28;19925;-79
2023/04/19 00:53:29;;;;;;;;;;;;;;;9.97;100.00;98425.41;5016671;28;19929;-80
2023/04/19 00:55:57;;;;;;;;;;;;;;;9.89;100.00;98425.84;5017236;28;19926;-79
2023/04/19 00:58:23;;;;;;;;;;;;;;;10.01;100.00;98431.06;5020408;28;20422;-80
2023/04/19 01:00:49;;;;;;;;;;;;;;;9.91;100.00;98429.06;5022414;28;20673;-80
2023/04/19 01:03:16;;;;;;;;;;;;;;;9.90;100.00;98421.31;5018157;28;20316;-79
2023/04/19 01:05:44;;;;;;;;;;;;;;;9.93;100.00;98420.84;5002491;28;19984;-78
2023/04/19 01:08:10;;;;;;;;;;;;;;;10.00;100.00;98424.13;5020471;28;19925;-79
2023/04/19 01:10:37;;;;;;;;;;;;;;;9.93;100.00;98416.31;5021806;28;19925;-80
2023/04/19 01:13:03;;;;;;;;;;;;;;;9.90;100.00;98416.00;5004547;28;20397;-79
2023/04/19 01:15:29;;;;;;;;;;;;;;;9.90;100.00;98411.47;5022182;28;19929;-80
2023/04/19 01:17:56;;;;;;;;;;;;;;;9.84;100.00;98406.31;5018549;28;19980;-79
2023/04/19 01:20:22;;;;;;;;;;;;;;;9.73;100.00;98400.81;5018068;28;19967;-79
2023/04/19 01:22:50;;;;;;;;;;;;;;;9.70;100.00;98395.97;5010878;28;19988;-79
2023/04/19 01:25:16;;;;;;;;;;;;;;;9.66;100.00;98397.50;5021174;28;19932;-79
2023/04/19 01:27:43;;;;;;;;;;;;;;;9.63;100.00;98392.66;5003336;28;20337;-79
2023/04/19 01:30:10;;;;;;;;;;;;;;;9.66;100.00;98391.38;5012013;28;19932;-79
2023/04/19 01:32:36;;;;;;;;;;;;;;;9.74;100.00;98391.78;5010330;28;20151;-80
2023/04/19 01:35:02;;;;;;;;;;;;;;;9.76;100.00;98397.66;4995780;28;19926;-79
2023/04/19 01:37:29;;;;;;;;;;;;;;;10.10;100.00;98384.22;4994621;28;19968;-79
2023/04/19 01:39:57;;;;;;;;;;;;;;;10.42;100.00;98382.53;5012158;28;19925;-79
2023/04/19 01:42:23;;;;;;;;;;;;;;;10.52;100.00;98381.81;5020848;28;20410;-79
2023/04/19 01:44:49;;;;;;;;;;;;;;;10.56;100.00;98377.56;5015129;28;20331;-79
2023/04/19 01:47:16;;;;;;;;;;;;;;;10.53;100.00;98378.88;5002854;28;19925;-79
2023/04/19 01:49:42;;;;;;;;;;;;;;;10.52;100.00;98369.25;5009392;28;19943;-78
2023/04/19 01:52:08;;;;;;;;;;;;;;;10.46;100.00;98375.59;5010642;28;19925;-79
2023/04/19 01:54:35;;;;;;;;;;;;;;;10.56;100.00;98370.38;5004356;28;19937;-79
2023/04/19 01:57:02;;;;;;;;;;;;;;;10.67;100.00;98369.44;5013002;28;20024;-79
2023/04/19 01:59:29;;;;;;;;;;;;;;;10.80;100.00;98358.31;5007902;28;19925;-80
2023/04/19 02:01:55;;;;;;;;;;;;;;;10.82;100.00;98361.56;5015871;28;19936;-80
2023/04/19 02:04:21;;;;;;;;;;;;;;;10.73;100.00;98352.41;5014251;28;19972;-79
2023/04/19 02:06:48;;;;;;;;;;;;;;;10.40;100.00;98357.91;5011940;28;19925;-80
2023/04/19 02:09:14;;;;;;;;;;;;;;;10.30;100.00;98352.47;5014104;28;19929;-80
2023/04/19 02:11:41;;;;;;;;;;;;;;;10.41;100.00;98359.53;5010391;28;20050;-79
2023/04/19 02:14:08;;;;;;;;;;;;;;;10.24;100.00;98350.81;5025464;28;19929;-80
2023/04/19 02:16:35;;;;;;;;;;;;;;;10.09;100.00;98356.72;5022779;28;20015;-80
2023/04/19 02:19:01;;;;;;;;;;;;;;;10.13;100.00;98352.53;5023332;28;19928;-78
2023/04/19 02:21:27;;;;;;;;;;;;;;;10.02;100.00;98355.31;5016539;28;20393;-79
2023/04/19 02:23:54;;;;;;;;;;;;;;;10.08;100.00;98346.31;5012045;28;20489;-79
2023/04/19 02:26:20;;;;;;;;;;;;;;;9.96;100.00;98345.63;5016100;28;20417;-80
2023/04/19 02:28:46;;;;;;;;;;;;;;;10.00;100.00;98346.72;5018670;28;19925;-79
2023/04/19 02:31:14;;;;;;;;;;;;;;;9.89;100.00;98343.16;5021128;28;20016;-79
2023/04/19 02:33:40;;;;;;;;;;;;;;;10.05;100.00;98344.16;5010439;28;19929;-79
2023/04/19 02:36:07;;;;;;;;;;;;;;;9.97;100.00;98336.56;5011165;28;20109;-79
2023/04/19 02:38:34;;;;;;;;;;;;;;;9.98;100.00;98339.00;5020678;28;20543;-79
2023/04/19 02:41:03;;;;;;;;;;;;;;;10.08;100.00;98341.78;5018721;28;19925;-79
2023/04/19 02:43:29;;;;;;;;;;;;;;;10.13;100.00;98330.34;5017259;28;19925;-78
2023/04/19 02:45:56;;;;;;;;;;;;;;;9.96;100.00;98337.63;5008596;28;19936;-79
2023/04/19 02:48:23;;;;;;;;;;;;;;;10.09;100.00;98332.72;5016054;28;19932;-79
2023/04/19 02:50:50;;;;;;;;;;;;;;;10.20;100.00;98337.16;5002733;28;20024;-81
2023/04/19 02:53:16;;;;;;;;;;;;;;;10.38;100.00;98325.31;5005014;28;19936;-80
2023/04/19 02:55:42;;;;;;;;;;;;;;;10.52;100.00;98326.53;5013979;28;20163;-80
2023/04/19 02:58:09;;;;;;;;;;;;;;;10.60;100.00;98325.28;5008082;28;19925;-80
2023/04/19 03:00:35;;;;;;;;;;;;;;;10.31;100.00;98322.03;4995865;28;19932;-79
2023/04/19 03:03:02;;;;;;;;;;;;;;;10.12;100.00;98318.09;5010235;28;19932;-79
2023/04/19 03:05:30;;;;;;;;;;;;;;;9.91;100.00;98327.69;4990235;28;20393;-81
2023/04/19 03:07:57;;;;;;;;;;;;;;;10.02;100.00;98317.97;5017438;28;20623;-80
2023/04/19 03:10:23;;;;;;;;;;;;;;;10.01;100.00;98324.34;5017707;28;20377;-79
2023/04/19 03:12:49;;;;;;;;;;;;;;;10.17;100.00;98313.63;5010121;28;19929;-80
2023/04/19 03:15:16;;;;;;;;;;;;;;;10.07;100.00;98300.13;4998404;28;19925;-82
2023/04/19 03:17:42;;;;;;;;;;;;;;;9.89;100.00;98303.13;5015649;28;20373;-80
2023/04/19 03:20:10;;;;;;;;;;;;;;;9.59;100.00;98310.75;5020115;28;19929;-79
2023/04/19 03:22:38;;;;;;;;;;;;;;;9.42;100.00;98302.78;5021405;28;19968;-80
2023/04/19 03:25:05;;;;;;;;;;;;;;;9.52;100.00;98302.13;5024195;28;19925;-80
2023/04/19 03:27:33;;;;;;;;;;;;;;;9.68;100.00;98296.75;5025232;28;20393;-79
2023/04/19 03:29:59;;;;;;;;;;;;;;;9.72;100.00;98297.03;5025403;28;19933;-80
2023/04/19 03:32:25;;;;;;;;;;;;;;;9.64;100.00;98295.63;5021017;28;19936;-80
2023/04/19 03:34:52;;;;;;;;;;;;;;;9.87;100.00;98283.09;5024788;28;20040;-80
2023/04/19 03:37:18;;;;;;;;;;;;;;;10.06;100.00;98281.69;5021359;28;19925;-79
2023/04/19 03:39:46;;;;;;;;;;;;;;;10.23;100.00;98279.78;5024091;28;20011;-79
2023/04/19 03:42:12;;;;;;;;;;;;;;;10.36;100.00;98274.06;5025063;28;20020;-80
2023/04/19 03:44:38;;;;;;;;;;;;;;;10.07;100.00;98277.97;5015276;28;19935;-80
2023/04/19 03:47:05;;;;;;;;;;;;;;;10.03;100.00;98269.66;5010546;28;19947;-80
2023/04/19 03:49:31;;;;;;;;;;;;;;;10.04;100.00;98281.16;5009471;28;19929;-80
2023/04/19 03:51:57;;;;;;;;;;;;;;;9.97;100.00;98285.88;5010871;28;19969;-78
2023/04/19 03:54:24;;;;;;;;;;;;;;;9.92;100.00;98278.63;5010996;28;19926;-80
2023/04/19 03:56:51;;;;;;;;;;;;;;;10.02;100.00;98280.59;5022671;28;19929;-80
2023/04/19 03:59:18;;;;;;;;;;;;;;;10.03;100.00;98279.53;5009028;28;19940;-79
2023/04/19 04:01:44;;;;;;;;;;;;;;;9.89;100.00;98275.66;5016274;28;19925;-80
2023/04/19 04:04:11;;;;;;;;;;;;;;;9.61;100.00;98279.31;5006919;28;20579;-79
2023/04/19 04:06:37;;;;;;;;;;;;;;;9.36;100.00;98273.63;5017233;28;19932;-79
2023/04/19 04:09:06;;;;;;;;;;;;;;;9.45;100.00;98280.97;5006953;28;19937;-79
2023/04/19 04:11:33;;;;;;;;;;;;;;;9.39;100.00;98265.97;5022116;28;19953;-79
2023/04/19 04:14:00;;;;;;;;;;;;;;;9.62;100.00;98270.25;5016378;28;19929;-79
2023/04/19 04:16:27;;;;;;;;;;;;;;;9.67;100.00;98276.47;5014911;28;19925;-78
2023/04/19 04:18:53;;;;;;;;;;;;;;;9.71;100.00;98274.91;5011610;28;19933;-79
2023/04/19 04:21:20;;;;;;;;;;;;;;;9.73;100.00;98264.78;5000956;28;19990;-79
2023/04/19 04:23:48;;;;;;;;;;;;;;;9.78;100.00;98264.03;5008837;28;19990;-79
2023/04/19 04:26:15;;;;;;;;;;;;;;;9.83;100.00;98261.44;4998048;28;20021;-80
2023/04/19 04:28:41;;;;;;;;;;;;;;;9.91;100.00;98269.00;5007018;28;20088;-79
2023/04/19 04:31:11;;;;;;;;;;;;;;;9.96;100.00;98260.25;5014559;28;19964;-79
2023/04/19 04:33:38;;;;;;;;;;;;;;;9.80;100.00;98261.13;5009987;28;19971;-80
2023/04/19 04:36:04;;;;;;;;;;;;;;;9.64;100.00;98268.97;4994108;28;19940;-79
2023/04/19 04:38:31;;;;;;;;;;;;;;;9.85;100.00;98269.19;5004738;28;20079;-80
2023/04/19 04:40:58;;;;;;;;;;;;;;;10.05;100.00;98269.44;5018424;28;19925;-80
2023/04/19 04:43:27;;;;;;;;;;;;;;;10.32;100.00;98269.47;5015356;28;19925;-79
2023/04/19 04:45:56;;;;;;;;;;;;;;;10.47;100.00;98274.94;5011275;28;19929;-79
2023/04/19 04:48:24;;;;;;;;;;;;;;;10.46;100.00;98266.13;5018165;28;20047;-79
2023/04/19 04:50:51;;;;;;;;;;;;;;;10.26;100.00;98261.41;5023957;28;19925;-79
2023/04/19 04:53:17;;;;;;;;;;;;;;;10.16;100.00;98265.84;5016021;28;19930;-80
2023/04/19 04:55:44;;;;;;;;;;;;;;;9.98;100.00;98253.59;5015787;28;20458;-80
2023/04/19 04:58:10;;;;;;;;;;;;;;;9.78;100.00;98259.50;5024072;28;19947;-79
2023/04/19 05:00:36;;;;;;;;;;;;;;;9.66;100.00;98266.03;5013706;28;20318;-80
2023/04/19 05:03:03;;;;;;;;;;;;;;;9.69;100.00;98262.88;5015097;28;19936;-79
2023/04/19 05:05:30;;;;;;;;;;;;;;;9.67;100.00;98268.47;5016737;28;19925;-80
2023/04/19 05:07:57;;;;;;;;;;;;;;;9.93;100.00;98258.91;5025040;28;20435;-80
2023/04/19 05:10:23;;;;;;;;;;;;;;;10.11;100.00;98263.09;5018245;28;19929;-79
2023/04/19 05:12:49;;;;;;;;;;;;;;;10.19;100.00;98258.13;5022265;28;19937;-80
2023/04/19 05:15:16;;;;;;;;;;;;;;;10.24;100.00;98260.84;5015753;28;20612;-80
2023/04/19 05:17:42;;;;;;;;;;;;;;;10.24;100.00;98252.06;5009657;28;19937;-79
2023/04/19 05:20:09;;;;;;;;;;;;;;;10.25;100.00;98259.78;5011390;28;19932;-80
2023/04/19 05:22:37;;;;;;;;;;;;;;;10.19;100.00;98262.66;5017387;28;19936;-79
2023/04/19 05:25:03;;;;;;;;;;;;;;;10.04;100.00;98268.63;5021028;28;19940;-79
2023/04/19 05:27:30;;;;;;;;;;;;;;;10.02;100.00;98268.06;5014412;28;20364;-79
2023/04/19 05:29:56;;;;;;;;;;;;;;;9.94;100.00;98257.81;5021233;28;19952;-80
2023/04/19 05:32:23;;;;;;;;;;;;;;;9.75;100.00;98253.88;5017570;28;19935;-80
2023/04/19 05:34:49;;;;;;;;;;;;;;;9.60;100.00;98254.50;5018017;28;20290;-80
2023/04/19 05:37:15;;;;;;;;;;;;;;;9.76;100.00;98255.50;5007398;28;19937;-78
2023/04/19 05:39:43;;;;;;;;;;;;;;;9.82;100.00;98254.50;5010980;28;20031;-79
2023/04/19 05:42:09;;;;;;;;;;;;;;;9.78;100.00;98248.84;5003025;28;20072;-79
2023/04/19 05:44:36;;;;;;;;;;;;;;;9.74;100.00;98247.75;5015178;28;19941;-80
2023/04/19 05:47:02;;;;;;;;;;;;;;;9.73;100.00;98248.00;5010120;28;20183;-79
2023/04/19 05:49:28;;;;;;;;;;;;;;;9.76;100.00;98237.63;5008338;28;19925;-80
2023/04/19 05:51:55;;;;;;;;;;;;;;;9.71;100.00;98242.91;5002137;28;20305;-79
2023/04/19 05:54:22;;;;;;;;;;;;;;;9.59;100.00;98239.53;5005827;28;19926;-80
2023/04/19 05:56:49;;;;;;;;;;;;;;;9.66;100.00;98240.16;5021065;28;19931;-79
2023/04/19 05:59:16;;;;;;;;;;;;;;;9.74;100.00;98230.94;5016319;28;19925;-80
2023/04/19 06:01:42;;;;;;;;;;;;;;;9.69;100.00;98234.34;5001880;28;20013;-80
2023/04/19 06:04:08;;;;;;;;;;;;;;;9.63;100.00;98227.34;5008981;28;19929;-79
2023/04/19 06:06:36;;;;;;;;;;;;;;;9.83;100.00;98229.44;5010935;28;19928;-79
2023/04/19 06:09:03;;;;;;;;;;;;;;;9.68;100.00;98237.28;5008330;28;19937;-79
2023/04/19 06:11:30;;;;;;;;;;;;;;;9.50;100.00;98233.03;5010723;28;19947;-79
2023/04/19 06:13:57;;;;;;;;;;;;;;;9.55;100.00;98233.13;5021992;28;19929;-79
2023/04/19 06:16:24;;;;;;;;;;;;;;;9.60;100.00;98241.16;5015511;28;19933;-80
2023/04/19 06:18:50;;;;;;;;;;;;;;;9.61;100.00;98242.78;5014650;28;20549;-79
2023/04/19 06:21:16;;;;;;;;;;;;;;;9.74;100.00;98229.09;5023425;28;19972;-80
2023/04/19 06:23:43;;;;;;;;;;;;;;;9.73;100.00;98240.78;5016629;28;20352;-81
2023/04/19 06:26:09;;;;;;;;;;;;;;;9.65;100.00;98227.09;5013210;28;19932;-80
2023/04/19 06:28:35;;;;;;;;;;;;;;;9.73;100.00;98227.47;5018419;28;19929;-79
2023/04/19 06:31:03;;;;;;;;;;;;;;;9.61;100.00;98234.78;5023474;28;19925;-80
2023/04/19 06:33:29;;;;;;;;;;;;;;;9.53;100.00;98231.75;5024972;28;20371;-80
2023/04/19 06:35:56;;;;;;;;;;;;;;;9.51;100.00;98232.00;5009600;28;20020;-79
2023/04/19 06:38:22;;;;;;;;;;;;;;;9.45;100.00;98221.50;5014508;28;20419;-80
2023/04/19 06:40:50;;;;;;;;;;;;;;;9.51;100.00;98236.50;5017848;28;19925;-79
2023/04/19 06:43:16;;;;;;;;;;;;;;;9.63;100.00;98234.53;5007510;28;19925;-79
2023/04/19 06:45:42;;;;;;;;;;;;;;;9.61;100.00;98234.78;5020912;28;20381;-79
2023/04/19 06:48:10;;;;;;;;;;;;;;;9.61;100.00;98232.13;5020924;28;19935;-80
2023/04/19 06:50:36;;;;;;;;;;;;;;;9.69;100.00;98231.66;5014938;28;20017;-78
2023/04/19 06:53:02;;;;;;;;;;;;;;;9.84;100.00;98224.91;5018626;28;19925;-79
2023/04/19 06:55:29;;;;;;;;;;;;;;;9.80;100.00;98221.94;5015290;28;19925;-80
2023/04/19 06:57:55;;;;;;;;;;;;;;;9.93;100.00;98220.75;5018072;28;20016;-80
2023/04/19 07:00:22;;;;;;;;;;;;;;;9.83;100.00;98212.63;5021344;28;19929;-79
2023/04/19 07:02:48;;;;;;;;;;;;;;;9.87;100.00;98211.88;5018413;28;19925;-79
2023/04/19 07:05:16;;;;;;;;;;;;;;;9.99;100.00;98212.53;5016509;28;19933;-79
2023/04/19 07:07:42;;;;;;;;;;;;;;;10.12;100.00;98208.66;5014553;28;19935;-79
2023/04/19 07:10:09;;;;;;;;;;;;;;;10.13;100.00;98208.44;5010862;28;19951;-79
2023/04/19 07:12:36;;;;;;;;;;;;;;;9.89;100.00;98206.28;5017574;28;20082;-80
2023/04/19 07:15:02;;;;;;;;;;;;;;;9.85;100.00;98205.97;5006194;28;19932;-80
2023/04/19 07:17:29;;;;;;;;;;;;;;;9.64;100.00;98202.28;4998909;28;20023;-79
2023/04/19 07:19:55;;;;;;;;;;;;;;;9.60;100.00;98214.50;4998070;28;20376;-79
2023/04/19 07:22:23;;;;;;;;;;;;;;;9.53;100.00;98213.09;5003005;28;19937;-79
2023/04/19 07:24:50;;;;;;;;;;;;;;;9.47;100.00;98214.09;5011705;28;20035;-80
2023/04/19 07:27:17;;;;;;;;;;;;;;;9.44;100.00;98204.69;5012037;28;19925;-79
2023/04/19 07:29:43;;;;;;;;;;;;;;;9.45;100.00;98210.84;5006969;28;19933;-79
2023/04/19 07:32:10;;;;;;;;;;;;;;;9.39;100.00;98214.50;5008980;28;19932;-80
2023/04/19 07:34:36;;;;;;;;;;;;;;;9.44;100.00;98204.69;4994425;28;19939;-79
2023/04/19 07:37:02;;;;;;;;;;;;;;;9.41;100.00;98204.41;5008887;28;19925;-81
2023/04/19 07:39:30;;;;;;;;;;;;;;;9.45;100.00;98205.50;5009209;28;19959;-80
2023/04/19 07:41:57;;;;;;;;;;;;;;;9.47;100.00;98208.75;5008474;28;19926;-80
2023/04/19 07:44:23;;;;;;;;;;;;;;;9.53;100.00;98211.22;5014791;28;19925;-78
2023/04/19 07:46:49;;;;;;;;;;;;;;;9.56;100.00;98213.38;5015730;28;19929;-80
2023/04/19 07:49:16;;;;;;;;;;;;;;;9.64;100.00;98207.63;5018354;28;19925;-80
2023/04/19 07:51:42;;;;;;;;;;;;;;;9.73;100.00;98199.97;5021296;28;19933;-79
2023/04/19 07:54:09;;;;;;;;;;;;;;;9.76;100.00;98202.97;5018723;28;19925;-80
2023/04/19 07:56:36;;;;;;;;;;;;;;;9.88;100.00;98202.00;5015388;28;19940;-79
2023/04/19 07:59:03;;;;;;;;;;;;;;;9.90;100.00;98203.38;5004320;28;20023;-80
2023/04/19 08:01:29;;;;;;;;;;;;;;;9.97;100.00;98192.47;5021126;28;19929;-81
2023/04/19 08:03:56;;;;;;;;;;;;;;;10.06;100.00;98202.44;5016817;28;19936;-80
2023/04/19 08:06:22;;;;;;;;;;;;;;;10.07;100.00;98195.25;5036030;28;20179;-80
2023/04/19 08:08:48;;;;;;;;;;;;;;;10.03;100.00;98192.28;5019795;28;19932;-79
2023/04/19 08:11:15;;;;;;;;;;;;;;;10.05;100.00;98197.38;5019036;28;19933;-79
2023/04/19 08:13:43;;;;;;;;;;;;;;;10.08;100.00;98196.88;5021778;28;20028;-80
2023/04/19 08:16:09;;;;;;;;;;;;;;;10.07;100.00;98192.59;5005081;28;20384;-79
2023/04/19 08:18:35;;;;;;;;;;;;;;;10.09;100.00;98185.13;5014523;28;19925;-79
2023/04/19 08:21:02;;;;;;;;;;;;;;;10.13;100.00;98187.09;5017077;28;19925;-80
2023/04/19 08:23:28;;;;;;;;;;;;;;;10.00;100.00;98191.97;5014004;28;19929;-79
2023/04/19 08:25:54;;;;;;;;;;;;;;;9.96;100.00;98199.72;5022186;28;20517;-80
2023/04/19 08:28:21;;;;;;;;;;;;;;;9.97;100.00;98192.47;5010035;28;19925;-78
2023/04/19 08:30:49;;;;;;;;;;;;;;;9.94;100.00;98188.47;5012692;28;19929;-80
2023/04/19 08:33:15;;;;;;;;;;;;;;;10.00;100.00;98192.78;5009523;28;19936;-79
2023/04/19 08:35:41;;;;;;;;;;;;;;;10.08;100.00;98184.34;5024270;28;19960;-79
2023/04/19 08:38:08;;;;;;;;;;;;;;;10.18;100.00;98183.66;5002522;28;20273;-79
2023/04/19 08:40:35;;;;;;;;;;;;;;;10.15;100.00;98182.28;5013142;28;19929;-79
2023/04/19 08:43:05;;;;;;;;;;;;;;;10.22;100.00;98182.91;5009782;28;19975;-80
2023/04/19 08:45:31;;;;;;;;;;;;;;;10.23;100.00;98184.50;5014538;28;20122;-79
2023/04/19 08:47:59;;;;;;;;;;;;;;;10.32;100.00;98173.34;5007191;28;20001;-79
2023/04/19 08:50:25;;;;;;;;;;;;;;;10.39;100.00;98177.44;5004131;28;20297;-78
2023/04/19 08:52:52;;;;;;;;;;;;;;;10.37;100.00;98174.19;5008166;28;19937;-78
2023/04/19 08:55:18;;;;;;;;;;;;;;;10.31;100.00;98175.22;5022642;28;19929;-79
2023/04/19 08:57:45;;;;;;;;;;;;;;;10.42;100.00;98174.25;5018099;28;19929;-79
2023/04/19 09:00:12;;;;;;;;;;;;;;;10.40;100.00;98168.34;4989981;28;20403;-79
2023/04/19 09:02:45;;;;;;;;;;;;;;;10.34;100.00;98172.03;5000118;28;20188;-81
2023/04/19 09:05:13;;;;;;;;;;;;;;;10.33;100.00;98173.13;4998402;28;19932;-79
2023/04/19 09:07:40;;;;;;;;;;;;;;;10.34;100.00;98172.03;5012263;28;19932;-79
2023/04/19 09:10:07;;;;;;;;;;;;;;;10.38;100.00;98167.81;5006206;28;19936;-79
2023/04/19 09:12:33;;;;;;;;;;;;;;;10.40;100.00;98176.34;5021929;28;19955;-79
2023/04/19 09:15:01;;;;;;;;;;;;;;;10.32;100.00;98162.69;5020116;28;20058;-79
2023/04/19 09:17:27;;;;;;;;;;;;;;;10.31;100.00;98161.88;5017304;28;20173;-79
2023/04/19 09:19:53;;;;;;;;;;;;;;;10.23;100.00;98155.16;5015744;28;20000;-79
2023/04/19 09:22:21;;;;;;;;;;;;;;;10.14;100.00;98158.53;5023712;28;19951;-79
2023/04/19 09:24:47;;;;;;;;;;;;;;;10.22;100.00;98160.72;5016016;28;20012;-78
2023/04/19 09:27:15;;;;;;;;;;;;;;;10.22;100.00;98158.06;5027735;28;19933;-79
2023/04/19 09:29:43;;;;;;;;;;;;;;;10.21;100.00;98153.81;5026548;28;20444;-81
2023/04/19 09:32:09;;;;;;;;;;;;;;;10.23;100.00;98157.00;5025633;28;19995;-79
2023/04/19 09:34:35;;;;;;;;;;;;;;;10.17;100.00;98150.84;5020774;28;19965;-82
2023/04/19 09:37:11;;;;;;;;;;;;;;;10.18;100.00;98146.31;5012553;28;19936;-80
2023/04/19 09:39:39;;;;;;;;;;;;;;;10.20;100.00;98144.19;5008399;28;19932;-80
2023/04/19 09:42:05;;;;;;;;;;;;;;;10.21;100.00;98143.13;5021325;28;19971;-80
2023/04/19 09:44:33;;;;;;;;;;;;;;;10.01;100.00;98153.56;5012366;28;19926;-79
2023/04/19 09:47:00;;;;;;;;;;;;;;;9.81;100.00;98150.72;5017874;28;19932;-79
2023/04/19 09:49:26;;;;;;;;;;;;;;;9.75;100.00;98150.66;5015156;28;19967;-79
2023/04/19 09:51:54;;;;;;;;;;;;;;;9.89;100.00;98150.25;5006493;28;19936;-80
2023/04/19 09:54:21;;;;;;;;;;;;;;;9.81;100.00;98148.84;5023880;28;19931;-80
2023/04/19 09:56:49;;;;;;;;;;;;;;;9.62;100.00;98147.59;5014948;28;19932;-79
2023/04/19 09:59:16;;;;;;;;;;;;;;;9.60;100.00;98147.84;5015022;28;19979;-81
2023/04/19 10:01:43;;;;;;;;;;;;;;;9.62;100.00;98148.38;5024533;28;20452;-80
2023/04/19 10:04:10;;;;;;;;;;;;;;;9.54;100.00;98140.84;5008871;28;19925;-80
2023/04/19 10:06:37;;;;;;;;;;;;;;;9.51;100.00;98149.34;5017649;28;20352;-81
2023/04/19 10:09:04;;;;;;;;;;;;;;;9.44;100.00;98143.41;5009285;28;20039;-79
2023/04/19 10:11:35;;;;;;;;;;;;;;;9.48;100.00;98143.69;4999609;28;19930;-80
2023/04/19 10:14:04;;;;;;;;;;;;;;;9.44;100.00;98146.06;5006428;28;19929;-79
2023/04/19 10:16:31;;;;;;;;;;;;;;;9.36;100.00;98143.84;5013721;28;19925;-79
2023/04/19 10:18:58;;;;;;;;;;;;;;;9.36;100.00;98141.19;5018731;28;20501;-79
2023/04/19 10:21:26;;;;;;;;;;;;;;;9.23;100.00;98136.22;5021972;28;19932;-79
2023/04/19 10:23:53;;;;;;;;;;;;;;;9.12;100.00;98147.81;5018227;28;19933;-80
2023/04/19 10:26:19;;;;;;;;;;;;;;;9.10;100.00;98141.91;5009494;28;20447;-79
2023/04/19 10:28:47;;;;;;;;;;;;;;;8.92;100.00;98145.69;5009379;28;20363;-78
2023/04/19 10:31:15;;;;;;;;;;;;;;;8.83;100.00;98143.69;5008987;28;20386;-79
2023/04/19 10:33:41;;;;;;;;;;;;;;;8.98;100.00;98143.91;5013851;28;20003;-78
2023/04/19 10:36:08;;;;;;;;;;;;;;;9.00;100.00;98142.63;5008162;28;20023;-78
2023/04/19 10:38:40;;;;;;;;;;;;;;;9.00;100.00;98139.94;5004983;28;20530;-79
2023/04/19 10:41:10;;;;;;;;;;;;;;;8.74;100.00;98147.84;5009546;28;20020;-79
2023/04/19 10:43:37;;;;;;;;;;;;;;;8.87;100.00;98145.63;5018797;28;19925;-79
2023/04/19 10:46:06;;;;;;;;;;;;;;;8.66;100.00;98138.41;5011504;28;19964;-79
2023/04/19 10:48:37;;;;;;;;;;;;;;;8.64;100.00;98133.31;5016856;28;19932;-79
2023/04/19 10:51:04;;;;;;;;;;;;;;;8.52;100.00;98140.59;5021417;28;20028;-79
2023/04/19 10:53:43;;;;;;;;;;;;;;;8.61;100.00;98135.66;5015993;28;20015;-80
2023/04/19 10:56:09;;;;;;;;;;;;;;;8.63;100.00;98129.03;5025526;28;19929;-79
2023/04/19 10:58:50;;;;;;;;;;;;;;;8.61;100.00;98130.34;5010893;28;20159;-79
2023/04/19 11:01:32;;;;;;;;;;;;;;;8.85;100.00;98129.06;5021691;28;20019;-78
2023/04/19 11:04:00;;;;;;;;;;;;;;;8.88;100.00;98128.59;5012315;28;19944;-80
2023/04/19 11:06:26;;;;;;;;;;;;;;;8.88;100.00;98120.59;5017135;28;20026;-78
2023/04/19 11:08:53;;;;;;;;;;;;;;;8.73;100.00;98122.28;5014306;28;20028;-78
2023/04/19 11:11:20;;;;;;;;;;;;;;;8.64;100.00;98122.69;5009901;28;19925;-79
2023/04/19 11:13:47;;;;;;;;;;;;;;;8.60;100.00;98118.88;5017666;28;19929;-79
2023/04/19 11:16:13;;;;;;;;;;;;;;;8.48;100.00;98109.41;5004530;28;19926;-80
2023/04/19 11:18:39;;;;;;;;;;;;;;;8.42;100.00;98111.16;5018633;28;19925;-79
2023/04/19 11:21:12;;;;;;;;;;;;;;;8.40;100.00;98107.16;5008443;28;19944;-79
2023/04/19 11:23:38;;;;;;;;;;;;;;;8.44;100.00;98108.28;5004727;28;19925;-78
2023/04/19 11:26:05;;;;;;;;;;;;;;;8.50;100.00;98102.78;5016146;28;20016;-78
2023/04/19 11:28:32;;;;;;;;;;;;;;;8.48;100.00;98098.78;5009245;28;19925;-79
2023/04/19 11:30:59;;;;;;;;;;;;;;;8.53;100.00;98086.34;5005623;28;19925;-79
2023/04/19 11:33:27;;;;;;;;;;;;;;;8.54;100.00;98087.91;4989996;28;19947;-78
2023/04/19 11:35:53;;;;;;;;;;;;;;;8.52;100.00;98091.88;5008813;28;19933;-77
2023/04/19 11:38:21;;;;;;;;;;;;;;;8.51;100.00;98087.63;5019644;28;20447;-80
2023/04/19 11:40:47;;;;;;;;;;;;;;;8.56;100.00;98085.03;5006273;28;19926;-79
2023/04/19 11:43:14;;;;;;;;;;;;;;;8.60;100.00;98091.47;5004806;28;19939;-78
2023/04/19 11:45:41;;;;;;;;;;;;;;;8.55;100.00;98084.22;5004300;28;20016;-78
2023/04/19 11:48:13;;;;;;;;;;;;;;;8.61;100.00;98093.88;5013790;28;20525;-78
2023/04/19 11:50:40;;;;;;;;;;;;;;;8.61;100.00;98091.22;5017848;28;20020;-79
2023/04/19 11:53:10;;;;;;;;;;;;;;;8.59;100.00;98090.66;5019126;28;19933;-79
2023/04/19 11:55:38;;;;;;;;;;;;;;;8.81;100.00;98087.22;5018411;28;19933;-79
2023/04/19 11:58:08;;;;;;;;;;;;;;;9.01;100.00;98092.78;5016487;28;19925;-79
2023/04/19 12:00:35;;;;;;;;;;;;;;;9.07;100.00;98086.47;5022936;28;19925;-78
2023/04/19 12:03:01;;;;;;;;;;;;;;;8.90;100.00;98085.75;5022144;28;19929;-78
2023/04/19 12:05:28;;;;;;;;;;;;;;;9.11;100.00;98074.25;5014593;28;19940;-78
2023/04/19 12:08:01;;;;;;;;;;;;;;;9.05;100.00;98073.41;5019564;28;19930;-79
2023/04/19 12:10:27;;;;;;;;;;;;;;;9.22;100.00;98076.00;5020784;28;19929;-79
2023/04/19 12:12:55;;;;;;;;;;;;;;;9.20;100.00;98081.56;5022003;28;20521;-79
2023/04/19 12:15:21;;;;;;;;;;;;;;;9.34;100.00;98074.00;5013836;28;19925;-79
2023/04/19 12:17:57;;;;;;;;;;;;;;;9.44;100.00;98070.63;5012391;28;20375;-79
2023/04/19 12:20:34;;;;;;;;;;;;;;;9.59;100.00;98066.22;5020272;28;19925;-79
2023/04/19 12:23:01;;;;;;;;;;;;;;;9.59;100.00;98065.44;5011640;28;19936;-79
2023/04/19 12:25:28;;;;;;;;;;;;;;;9.60;100.00;98064.38;5009973;28;19928;-79
2023/04/19 12:27:56;;;;;;;;;;;;;;;9.61;100.00;98060.66;5005826;28;19925;-78
2023/04/19 12:30:22;;;;;;;;;;;;;;;9.74;100.00;98060.25;4983455;28;20413;-79
2023/04/19 12:32:50;;;;;;;;;;;;;;;9.83;100.00;98050.72;4990135;28;19925;-79
2023/04/19 12:35:16;;;;;;;;;;;;;;;10.01;100.00;98054.84;4998149;28;19929;-77
2023/04/19 12:37:43;;;;;;;;;;;;;;;10.11;100.00;98046.94;5015767;28;20400;-78
2023/04/19 12:40:10;;;;;;;;;;;;;;;10.15;100.00;98040.06;4993031;28;19929;-79
2023/04/19 12:42:36;;;;;;;;;;;;;;;10.15;100.00;98034.72;5010291;28;19929;-78